createdAt,value
2023-03-29T00:00:04.337Z,1015.68
2023-03-29T00:01:04.507Z,1015.64
2023-03-29T00:02:04.440Z,1015.65
2023-03-29T00:03:04.581Z,1015.60
2023-03-29T00:04:04.556Z,1015.58
2023-03-29T00:05:04.322Z,1015.61
2023-03-29T00:06:04.324Z,1015.60
2023-03-29T00:07:04.745Z,1015.62
2023-03-29T00:08:04.621Z,1015.54
2023-03-29T00:09:04.241Z,1015.55
2023-03-29T00:10:04.230Z,1015.56
2023-03-29T00:11:04.572Z,1015.59
2023-03-29T00:12:04.256Z,1015.49
2023-03-29T00:13:04.191Z,1015.50
2023-03-29T00:14:04.126Z,1015.56
2023-03-29T00:15:04.178Z,1015.50
2023-03-29T00:16:04.141Z,1015.59
2023-03-29T00:17:04.442Z,1015.61
2023-03-29T00:18:04.192Z,1015.54
2023-03-29T00:19:04.085Z,1015.50
2023-03-29T00:20:04.075Z,1015.47
2023-03-29T00:21:04.365Z,1015.46
2023-03-29T00:22:04.064Z,1015.48
2023-03-29T00:23:04.013Z,1015.45
2023-03-29T00:24:04.022Z,1015.44
2023-03-29T00:25:03.985Z,1015.47
2023-03-29T00:26:05.945Z,1015.43
2023-03-29T00:27:04.022Z,1015.44
2023-03-29T00:28:03.977Z,1015.38
2023-03-29T00:29:03.995Z,1015.38
2023-03-29T00:30:03.980Z,1015.40
2023-03-29T00:31:04.399Z,1015.34
2023-03-29T00:32:04.014Z,1015.41
2023-03-29T00:33:03.958Z,1015.33
2023-03-29T00:34:03.929Z,1015.32
2023-03-29T00:35:03.940Z,1015.31
2023-03-29T00:36:03.921Z,1015.28
2023-03-29T00:37:03.848Z,1015.35
2023-03-29T00:38:03.910Z,1015.32
2023-03-29T00:39:03.835Z,1015.26
2023-03-29T00:40:03.817Z,1015.30
2023-03-29T00:41:04.036Z,1015.20
2023-03-29T00:42:03.819Z,1015.19
2023-03-29T00:43:03.778Z,1015.20
2023-03-29T00:44:03.792Z,1015.20
2023-03-29T00:45:03.793Z,1015.27
2023-03-29T00:46:03.764Z,1015.25
2023-03-29T00:47:03.796Z,1015.23
2023-03-29T00:48:03.872Z,1015.31
2023-03-29T00:49:03.686Z,1015.27
2023-03-29T00:50:03.671Z,1015.19
2023-03-29T00:51:03.938Z,1015.14
2023-03-29T00:52:03.665Z,1015.14
2023-03-29T00:53:03.793Z,1015.03
2023-03-29T00:54:03.648Z,1015.03
2023-03-29T00:55:03.633Z,1015.04
2023-03-29T00:56:03.627Z,1015.01
2023-03-29T00:57:03.651Z,1015.02
2023-03-29T00:58:03.662Z,1014.99
2023-03-29T00:59:03.553Z,1015.01
2023-03-29T01:00:03.591Z,1015.00
2023-03-29T01:01:03.839Z,1015.03
2023-03-29T01:02:03.559Z,1014.98
2023-03-29T01:03:03.634Z,1014.97
2023-03-29T01:04:03.597Z,1014.99
2023-03-29T01:05:03.615Z,1014.98
2023-03-29T01:06:03.505Z,1015.04
2023-03-29T01:07:03.492Z,1014.97
2023-03-29T01:08:03.533Z,1015.03
2023-03-29T01:09:03.476Z,1014.99
2023-03-29T01:10:03.420Z,1015.00
2023-03-29T01:11:03.707Z,1014.94
2023-03-29T01:12:03.442Z,1014.96
2023-03-29T01:13:03.385Z,1014.95
2023-03-29T01:14:03.429Z,1014.95
2023-03-29T01:15:03.387Z,1014.94
2023-03-29T01:16:03.427Z,1014.93
2023-03-29T01:17:03.325Z,1014.93
2023-03-29T01:18:03.381Z,1014.89
2023-03-29T01:19:03.347Z,1014.91
2023-03-29T01:20:03.290Z,1014.88
2023-03-29T01:21:03.561Z,1014.93
2023-03-29T01:22:03.259Z,1014.82
2023-03-29T01:23:03.321Z,1014.90
2023-03-29T01:24:03.259Z,1014.88
2023-03-29T01:25:03.267Z,1014.95
2023-03-29T01:26:03.196Z,1014.86
2023-03-29T01:27:03.213Z,1014.87
2023-03-29T01:28:03.179Z,1014.88
2023-03-29T01:29:03.222Z,1014.92
2023-03-29T01:30:03.213Z,1014.86
2023-03-29T01:31:03.377Z,1014.82
2023-03-29T01:32:03.285Z,1014.85
2023-03-29T01:33:03.207Z,1014.86
2023-03-29T01:34:03.093Z,1014.86
2023-03-29T01:35:03.141Z,1014.76
2023-03-29T01:36:03.145Z,1014.76
2023-03-29T01:37:03.112Z,1014.78
2023-03-29T01:38:03.020Z,1014.86
2023-03-29T01:39:03.089Z,1014.70
2023-03-29T01:40:03.030Z,1014.68
2023-03-29T01:41:03.532Z,1014.66
2023-03-29T01:42:10.846Z,1014.63
2023-03-29T01:43:03.002Z,1014.62
2023-03-29T01:44:02.970Z,1014.56
2023-03-29T01:45:03.028Z,1014.59
2023-03-29T01:46:03.020Z,1014.64
2023-03-29T01:47:02.934Z,1014.63
2023-03-29T01:48:03.825Z,1014.58
2023-03-29T01:49:02.928Z,1014.58
2023-03-29T01:50:02.897Z,1014.53
2023-03-29T01:51:03.122Z,1014.54
2023-03-29T01:52:02.879Z,1014.50
2023-03-29T01:53:02.924Z,1014.59
2023-03-29T01:54:02.850Z,1014.51
2023-03-29T01:55:02.856Z,1014.53
2023-03-29T01:56:02.832Z,1014.48
2023-03-29T01:57:02.821Z,1014.46
2023-03-29T01:58:02.832Z,1014.44
2023-03-29T01:59:02.840Z,1014.48
2023-03-29T02:00:02.762Z,1014.53
2023-03-29T02:01:02.925Z,1014.39
2023-03-29T02:02:02.724Z,1014.49
2023-03-29T02:03:02.803Z,1014.48
2023-03-29T02:04:02.737Z,1014.46
2023-03-29T02:05:02.737Z,1014.41
2023-03-29T02:06:02.679Z,1014.50
2023-03-29T02:07:02.688Z,1014.45
2023-03-29T02:08:02.650Z,1014.43
2023-03-29T02:09:02.687Z,1014.35
2023-03-29T02:10:02.647Z,1014.37
2023-03-29T02:11:02.877Z,1014.35
2023-03-29T02:12:02.595Z,1014.38
2023-03-29T02:13:02.610Z,1014.44
2023-03-29T02:14:02.632Z,1014.42
2023-03-29T02:15:02.607Z,1014.37
2023-03-29T02:16:02.695Z,1014.26
2023-03-29T02:17:02.552Z,1014.34
2023-03-29T02:18:02.558Z,1014.28
2023-03-29T02:19:02.510Z,1014.22
2023-03-29T02:20:02.494Z,1014.21
2023-03-29T02:21:02.789Z,1014.28
2023-03-29T02:22:02.476Z,1014.24
2023-03-29T02:23:02.450Z,1014.21
2023-03-29T02:24:02.451Z,1014.16
2023-03-29T02:25:02.446Z,1014.20
2023-03-29T02:26:02.447Z,1014.15
2023-03-29T02:27:02.463Z,1014.10
2023-03-29T02:28:02.440Z,1014.08
2023-03-29T02:29:02.400Z,1014.14
2023-03-29T02:30:02.379Z,1014.16
2023-03-29T02:31:02.683Z,1014.13
2023-03-29T02:32:02.368Z,1014.12
2023-03-29T02:33:02.439Z,1014.06
2023-03-29T02:34:02.309Z,1014.09
2023-03-29T02:35:02.316Z,1014.08
2023-03-29T02:36:02.407Z,1014.11
2023-03-29T02:37:02.344Z,1014.04
2023-03-29T02:38:02.348Z,1014.08
2023-03-29T02:39:02.240Z,1014.05
2023-03-29T02:40:02.201Z,1014.00
2023-03-29T02:41:02.466Z,1014.02
2023-03-29T02:42:02.279Z,1013.97
2023-03-29T02:43:02.187Z,1013.93
2023-03-29T02:44:02.221Z,1014.04
2023-03-29T02:45:02.178Z,1014.07
2023-03-29T02:46:02.159Z,1014.01
2023-03-29T02:47:02.276Z,1014.03
2023-03-29T02:48:02.219Z,1014.04
2023-03-29T02:49:02.139Z,1014.00
2023-03-29T02:50:02.112Z,1013.97
2023-03-29T02:51:02.389Z,1014.04
2023-03-29T02:52:02.170Z,1014.06
2023-03-29T02:53:02.078Z,1014.03
2023-03-29T02:54:02.048Z,1014.06
2023-03-29T02:55:02.108Z,1014.06
2023-03-29T02:56:02.024Z,1014.05
2023-03-29T02:57:02.077Z,1014.08
2023-03-29T02:58:02.033Z,1014.07
2023-03-29T02:59:02.056Z,1014.11
2023-03-29T03:00:01.983Z,1014.12
2023-03-29T03:01:02.185Z,1014.21
2023-03-29T03:02:02.038Z,1014.22
2023-03-29T03:03:02.348Z,1014.19
2023-03-29T03:04:01.982Z,1014.22
2023-03-29T03:05:01.970Z,1014.14
2023-03-29T03:06:01.930Z,1014.21
2023-03-29T03:07:01.882Z,1014.11
2023-03-29T03:08:01.926Z,1014.02
2023-03-29T03:09:01.884Z,1014.10
2023-03-29T03:10:01.897Z,1014.12
2023-03-29T03:11:02.016Z,1014.14
2023-03-29T03:12:01.815Z,1014.11
2023-03-29T03:13:01.843Z,1014.06
2023-03-29T03:14:01.817Z,1014.09
2023-03-29T03:15:01.798Z,1014.11
2023-03-29T03:16:01.825Z,1014.15
2023-03-29T03:17:04.440Z,1014.16
2023-03-29T03:18:01.819Z,1014.22
2023-03-29T03:19:01.769Z,1014.15
2023-03-29T03:20:01.752Z,1014.14
2023-03-29T03:21:02.391Z,1014.07
2023-03-29T03:22:01.731Z,1014.06
2023-03-29T03:23:01.701Z,1014.07
2023-03-29T03:24:01.709Z,1014.09
2023-03-29T03:25:01.634Z,1014.10
2023-03-29T03:26:01.661Z,1014.06
2023-03-29T03:27:01.591Z,1014.05
2023-03-29T03:28:01.603Z,1014.00
2023-03-29T03:29:01.670Z,1014.04
2023-03-29T03:30:01.600Z,1013.98
2023-03-29T03:31:01.822Z,1014.02
2023-03-29T03:32:01.625Z,1013.91
2023-03-29T03:33:01.659Z,1013.93
2023-03-29T03:34:01.535Z,1013.94
2023-03-29T03:35:01.517Z,1013.94
2023-03-29T03:36:01.607Z,1013.92
2023-03-29T03:37:01.467Z,1013.88
2023-03-29T03:38:01.467Z,1013.87
2023-03-29T03:39:01.525Z,1013.82
2023-03-29T03:40:01.433Z,1013.85
2023-03-29T03:41:01.566Z,1013.80
2023-03-29T03:42:01.434Z,1013.86
2023-03-29T03:43:01.374Z,1013.82
2023-03-29T03:44:01.444Z,1013.80
2023-03-29T03:45:01.401Z,1013.86
2023-03-29T03:46:01.455Z,1013.75
2023-03-29T03:47:01.368Z,1013.79
2023-03-29T03:48:08.164Z,1013.82
2023-03-29T03:49:01.396Z,1013.84
2023-03-29T03:50:01.312Z,1013.83
2023-03-29T03:51:01.461Z,1013.80
2023-03-29T03:52:01.340Z,1013.79
2023-03-29T03:53:01.309Z,1013.77
2023-03-29T03:54:01.355Z,1013.75
2023-03-29T03:55:08.830Z,1013.80
2023-03-29T03:56:01.260Z,1013.69
2023-03-29T03:57:01.245Z,1013.78
2023-03-29T03:58:01.224Z,1013.75
2023-03-29T03:59:01.217Z,1013.75
2023-03-29T04:00:01.158Z,1013.77
2023-03-29T04:01:01.320Z,1013.76
2023-03-29T04:02:01.149Z,1013.70
2023-03-29T04:03:01.222Z,1013.70
2023-03-29T04:04:01.360Z,1013.71
2023-03-29T04:05:01.111Z,1013.71
2023-03-29T04:06:01.080Z,1013.71
2023-03-29T04:07:01.098Z,1013.70
2023-03-29T04:08:01.064Z,1013.76
2023-03-29T04:09:01.095Z,1013.74
2023-03-29T04:10:01.057Z,1013.71
2023-03-29T04:11:01.301Z,1013.79
2023-03-29T04:12:01.031Z,1013.74
2023-03-29T04:13:01.016Z,1013.79
2023-03-29T04:14:00.992Z,1013.73
2023-03-29T04:15:00.991Z,1013.74
2023-03-29T04:16:01.753Z,1013.79
2023-03-29T04:17:00.926Z,1013.76
2023-03-29T04:18:01.024Z,1013.78
2023-03-29T04:19:01.033Z,1013.79
2023-03-29T04:20:00.949Z,1013.71
2023-03-29T04:21:01.139Z,1013.73
2023-03-29T04:22:00.895Z,1013.73
2023-03-29T04:23:00.890Z,1013.72
2023-03-29T04:24:00.912Z,1013.71
2023-03-29T04:25:00.835Z,1013.72
2023-03-29T04:26:00.859Z,1013.72
2023-03-29T04:27:00.796Z,1013.72
2023-03-29T04:28:00.812Z,1013.67
2023-03-29T04:29:00.848Z,1013.67
2023-03-29T04:30:00.827Z,1013.71
2023-03-29T04:31:01.038Z,1013.63
2023-03-29T04:32:00.767Z,1013.69
2023-03-29T04:33:00.761Z,1013.63
2023-03-29T04:34:00.752Z,1013.69
2023-03-29T04:35:00.717Z,1013.62
2023-03-29T04:36:00.776Z,1013.62
2023-03-29T04:37:00.671Z,1013.60
2023-03-29T04:38:00.680Z,1013.59
2023-03-29T04:39:00.673Z,1013.73
2023-03-29T04:40:00.683Z,1013.66
2023-03-29T04:41:00.935Z,1013.65
2023-03-29T04:42:00.624Z,1013.63
2023-03-29T04:43:00.615Z,1013.70
2023-03-29T04:44:00.665Z,1013.60
2023-03-29T04:45:00.680Z,1013.66
2023-03-29T04:46:00.617Z,1013.59
2023-03-29T04:47:00.534Z,1013.63
2023-03-29T04:48:00.581Z,1013.61
2023-03-29T04:49:00.542Z,1013.63
2023-03-29T04:50:00.535Z,1013.62
2023-03-29T04:51:00.781Z,1013.58
2023-03-29T04:52:00.511Z,1013.56
2023-03-29T04:53:00.486Z,1013.47
2023-03-29T04:54:00.516Z,1013.54
2023-03-29T04:55:00.458Z,1013.49
2023-03-29T04:56:00.435Z,1013.49
2023-03-29T04:57:00.474Z,1013.51
2023-03-29T04:58:00.433Z,1013.51
2023-03-29T04:59:00.430Z,1013.52
2023-03-29T05:00:00.423Z,1013.46
2023-03-29T05:01:00.491Z,1013.49
2023-03-29T05:02:00.439Z,1013.43
2023-03-29T05:03:00.403Z,1013.43
2023-03-29T05:04:00.380Z,1013.47
2023-03-29T05:05:00.332Z,1013.47
2023-03-29T05:06:00.312Z,1013.52
2023-03-29T05:07:00.300Z,1013.45
2023-03-29T05:08:00.280Z,1013.43
2023-03-29T05:09:00.290Z,1013.45
2023-03-29T05:10:00.278Z,1013.47
2023-03-29T05:11:00.496Z,1013.43
2023-03-29T05:12:00.265Z,1013.44
2023-03-29T05:13:00.222Z,1013.51
2023-03-29T05:14:00.236Z,1013.46
2023-03-29T05:15:00.226Z,1013.42
2023-03-29T05:16:00.186Z,1013.46
2023-03-29T05:17:00.162Z,1013.41
2023-03-29T05:18:00.234Z,1013.49
2023-03-29T05:19:00.147Z,1013.45
2023-03-29T05:20:00.173Z,1013.52
2023-03-29T05:21:00.402Z,1013.46
2023-03-29T05:22:00.161Z,1013.34
2023-03-29T05:23:00.109Z,1013.38
2023-03-29T05:24:00.133Z,1013.35
2023-03-29T05:25:00.099Z,1013.34
2023-03-29T05:26:00.099Z,1013.33
2023-03-29T05:27:00.021Z,1013.39
2023-03-29T05:28:00.052Z,1013.31
2023-03-29T05:29:00.031Z,1013.35
2023-03-29T05:29:59.985Z,1013.40
2023-03-29T05:31:00.512Z,1013.35
2023-03-29T05:32:00.122Z,1013.33
2023-03-29T05:32:59.964Z,1013.35
2023-03-29T05:33:59.988Z,1013.35
2023-03-29T05:34:59.908Z,1013.36
2023-03-29T05:35:59.948Z,1013.33
2023-03-29T05:36:59.922Z,1013.26
2023-03-29T05:37:59.877Z,1013.32
2023-03-29T05:38:59.957Z,1013.33
2023-03-29T05:40:05.568Z,1013.29
2023-03-29T05:41:01.079Z,1013.24
2023-03-29T05:41:59.829Z,1013.20
2023-03-29T05:42:59.833Z,1013.22
2023-03-29T05:43:59.826Z,1013.29
2023-03-29T05:44:59.774Z,1013.25
2023-03-29T05:45:59.826Z,1013.23
2023-03-29T05:46:59.780Z,1013.20
2023-03-29T05:47:59.877Z,1013.19
2023-03-29T05:48:59.775Z,1013.21
2023-03-29T05:49:59.774Z,1013.25
2023-03-29T05:50:59.781Z,1013.21
2023-03-29T05:51:59.717Z,1013.13
2023-03-29T05:52:59.698Z,1013.15
2023-03-29T05:53:59.693Z,1013.18
2023-03-29T05:54:59.670Z,1013.18
2023-03-29T05:55:59.658Z,1013.19
2023-03-29T05:56:59.697Z,1013.22
2023-03-29T05:57:59.644Z,1013.17
2023-03-29T05:58:59.644Z,1013.15
2023-03-29T05:59:59.603Z,1013.07
2023-03-29T06:00:59.571Z,1013.12
2023-03-29T06:01:59.654Z,1013.09
2023-03-29T06:03:10.173Z,1013.16
2023-03-29T06:04:00.828Z,1013.19
2023-03-29T06:04:59.587Z,1013.14
2023-03-29T06:05:59.564Z,1013.14
2023-03-29T06:06:59.503Z,1013.16
2023-03-29T06:07:59.498Z,1013.12
2023-03-29T06:08:59.485Z,1013.12
2023-03-29T06:09:59.492Z,1013.13
2023-03-29T06:11:01.186Z,1013.10
2023-03-29T06:11:59.492Z,1013.17
2023-03-29T06:12:59.435Z,1013.19
2023-03-29T06:13:59.435Z,1013.21
2023-03-29T06:14:59.414Z,1013.17
2023-03-29T06:15:59.426Z,1013.23
2023-03-29T06:16:59.378Z,1013.25
2023-03-29T06:17:59.443Z,1013.27
2023-03-29T06:18:59.401Z,1013.29
2023-03-29T06:19:59.368Z,1013.31
2023-03-29T06:20:59.360Z,1013.35
2023-03-29T06:21:59.306Z,1013.30
2023-03-29T06:22:59.306Z,1013.31
2023-03-29T06:23:59.303Z,1013.35
2023-03-29T06:24:59.291Z,1013.29
2023-03-29T06:25:59.287Z,1013.30
2023-03-29T06:26:59.253Z,1013.29
2023-03-29T06:27:59.236Z,1013.28
2023-03-29T06:28:59.273Z,1013.34
2023-03-29T06:29:59.254Z,1013.33
2023-03-29T06:30:59.267Z,1013.37
2023-03-29T06:31:59.200Z,1013.34
2023-03-29T06:32:59.198Z,1013.35
2023-03-29T06:33:59.177Z,1013.33
2023-03-29T06:34:59.177Z,1013.34
2023-03-29T06:35:59.243Z,1013.28
2023-03-29T06:36:59.130Z,1013.32
2023-03-29T06:37:59.153Z,1013.31
2023-03-29T06:38:59.194Z,1013.31
2023-03-29T06:39:59.129Z,1013.25
2023-03-29T06:40:59.050Z,1013.28
2023-03-29T06:41:59.939Z,1013.29
2023-03-29T06:42:59.021Z,1013.29
2023-03-29T06:43:59.049Z,1013.25
2023-03-29T06:44:59.030Z,1013.33
2023-03-29T06:45:59.045Z,1013.32
2023-03-29T06:46:59.001Z,1013.39
2023-03-29T06:47:59.037Z,1013.35
2023-03-29T06:48:58.992Z,1013.42
2023-03-29T06:49:59.000Z,1013.35
2023-03-29T06:50:58.947Z,1013.48
2023-03-29T06:51:58.935Z,1013.45
2023-03-29T06:52:58.924Z,1013.43
2023-03-29T06:53:58.953Z,1013.46
2023-03-29T06:54:58.939Z,1013.49
2023-03-29T06:55:58.870Z,1013.51
2023-03-29T06:56:58.903Z,1013.53
2023-03-29T06:58:01.628Z,1013.48
2023-03-29T06:58:58.815Z,1013.45
2023-03-29T06:59:58.824Z,1013.45
2023-03-29T07:00:58.818Z,1013.48
2023-03-29T07:01:58.932Z,1013.53
2023-03-29T07:02:58.895Z,1013.54
2023-03-29T07:03:58.855Z,1013.52
2023-03-29T07:04:58.739Z,1013.49
2023-03-29T07:05:58.747Z,1013.41
2023-03-29T07:06:58.757Z,1013.35
2023-03-29T07:07:58.717Z,1013.36
2023-03-29T07:08:58.705Z,1013.43
2023-03-29T07:09:58.732Z,1013.44
2023-03-29T07:10:58.687Z,1013.47
2023-03-29T07:11:58.698Z,1013.44
2023-03-29T07:12:58.658Z,1013.50
2023-03-29T07:13:58.704Z,1013.51
2023-03-29T07:14:58.611Z,1013.54
2023-03-29T07:15:58.689Z,1013.47
2023-03-29T07:16:58.596Z,1013.42
2023-03-29T07:17:58.715Z,1013.46
2023-03-29T07:18:58.777Z,1013.48
2023-03-29T07:19:58.551Z,1013.48
2023-03-29T07:20:58.540Z,1013.43
2023-03-29T07:21:58.546Z,1013.47
2023-03-29T07:22:58.521Z,1013.47
2023-03-29T07:23:58.597Z,1013.52
2023-03-29T07:24:58.500Z,1013.42
2023-03-29T07:25:58.486Z,1013.46
2023-03-29T07:27:03.752Z,1013.45
2023-03-29T07:27:59.462Z,1013.46
2023-03-29T07:28:58.470Z,1013.49
2023-03-29T07:29:58.424Z,1013.54
2023-03-29T07:30:58.437Z,1013.49
2023-03-29T07:31:58.383Z,1013.58
2023-03-29T07:32:58.537Z,1013.56
2023-03-29T07:33:58.399Z,1013.54
2023-03-29T07:34:58.389Z,1013.52
2023-03-29T07:35:58.350Z,1013.52
2023-03-29T07:36:58.358Z,1013.52
2023-03-29T07:37:58.346Z,1013.51
2023-03-29T07:38:58.378Z,1013.49
2023-03-29T07:39:58.283Z,1013.53
2023-03-29T07:40:58.320Z,1013.54
2023-03-29T07:41:58.285Z,1013.53
2023-03-29T07:42:58.279Z,1013.51
2023-03-29T07:43:58.282Z,1013.51
2023-03-29T07:44:58.227Z,1013.35
2023-03-29T07:45:58.291Z,1013.40
2023-03-29T07:46:58.245Z,1013.40
2023-03-29T07:47:58.513Z,1013.43
2023-03-29T07:48:58.186Z,1013.45
2023-03-29T07:49:58.177Z,1013.48
2023-03-29T07:50:58.192Z,1013.46
2023-03-29T07:51:58.139Z,1013.42
2023-03-29T07:52:58.165Z,1013.43
2023-03-29T07:53:58.134Z,1013.46
2023-03-29T07:54:58.107Z,1013.46
2023-03-29T07:55:58.088Z,1013.47
2023-03-29T07:56:58.132Z,1013.54
2023-03-29T07:57:58.043Z,1013.53
2023-03-29T07:58:58.047Z,1013.49
2023-03-29T07:59:58.047Z,1013.54
2023-03-29T08:00:58.055Z,1013.54
2023-03-29T08:01:58.037Z,1013.46
2023-03-29T08:02:58.048Z,1013.51
2023-03-29T08:03:58.063Z,1013.52
2023-03-29T08:04:58.013Z,1013.55
2023-03-29T08:05:57.998Z,1013.52
2023-03-29T08:06:57.991Z,1013.58
2023-03-29T08:07:57.955Z,1013.54
2023-03-29T08:08:57.942Z,1013.54
2023-03-29T08:09:57.921Z,1013.52
2023-03-29T08:10:57.904Z,1013.55
2023-03-29T08:11:57.867Z,1013.55
2023-03-29T08:12:57.868Z,1013.52
2023-03-29T08:13:57.877Z,1013.57
2023-03-29T08:14:57.989Z,1013.53
2023-03-29T08:15:57.841Z,1013.49
2023-03-29T08:16:57.915Z,1013.50
2023-03-29T08:17:57.852Z,1013.48
2023-03-29T08:18:57.838Z,1013.51
2023-03-29T08:19:57.789Z,1013.38
2023-03-29T08:20:57.758Z,1013.48
2023-03-29T08:21:57.759Z,1013.49
2023-03-29T08:22:57.764Z,1013.48
2023-03-29T08:23:57.736Z,1013.51
2023-03-29T08:24:57.742Z,1013.52
2023-03-29T08:25:57.733Z,1013.47
2023-03-29T08:26:57.687Z,1013.42
2023-03-29T08:27:57.721Z,1013.38
2023-03-29T08:28:57.705Z,1013.40
2023-03-29T08:29:57.689Z,1013.43
2023-03-29T08:30:57.724Z,1013.37
2023-03-29T08:31:57.615Z,1013.46
2023-03-29T08:32:57.624Z,1013.43
2023-03-29T08:33:57.636Z,1013.39
2023-03-29T08:34:57.615Z,1013.49
2023-03-29T08:35:57.613Z,1013.43
2023-03-29T08:36:57.597Z,1013.43
2023-03-29T08:37:57.591Z,1013.47
2023-03-29T08:38:57.628Z,1013.48
2023-03-29T08:39:57.534Z,1013.46
2023-03-29T08:40:57.537Z,1013.50
2023-03-29T08:41:57.479Z,1013.44
2023-03-29T08:42:57.483Z,1013.54
2023-03-29T08:43:57.480Z,1013.52
2023-03-29T08:44:57.540Z,1013.44
2023-03-29T08:45:57.493Z,1013.43
2023-03-29T08:46:57.507Z,1013.48
2023-03-29T08:47:57.517Z,1013.43
2023-03-29T08:48:57.396Z,1013.42
2023-03-29T08:49:57.452Z,1013.43
2023-03-29T08:50:57.532Z,1013.38
2023-03-29T08:51:57.396Z,1013.40
2023-03-29T08:52:57.388Z,1013.39
2023-03-29T08:53:57.426Z,1013.40
2023-03-29T08:54:57.372Z,1013.38
2023-03-29T08:55:57.329Z,1013.38
2023-03-29T08:56:57.380Z,1013.38
2023-03-29T08:57:57.289Z,1013.33
2023-03-29T08:58:57.335Z,1013.27
2023-03-29T08:59:57.312Z,1013.33
2023-03-29T09:00:57.302Z,1013.30
2023-03-29T09:01:57.394Z,1013.35
2023-03-29T09:02:57.330Z,1013.35
2023-03-29T09:03:57.373Z,1013.36
2023-03-29T09:04:57.274Z,1013.30
2023-03-29T09:05:57.191Z,1013.29
2023-03-29T09:06:57.168Z,1013.26
2023-03-29T09:07:57.144Z,1013.25
2023-03-29T09:08:57.193Z,1013.25
2023-03-29T09:09:57.141Z,1013.28
2023-03-29T09:10:57.145Z,1013.28
2023-03-29T09:11:57.123Z,1013.25
2023-03-29T09:12:57.118Z,1013.31
2023-03-29T09:13:57.133Z,1013.23
2023-03-29T09:14:57.061Z,1013.24
2023-03-29T09:15:57.156Z,1013.26
2023-03-29T09:16:57.094Z,1013.34
2023-03-29T09:17:57.078Z,1013.27
2023-03-29T09:18:57.044Z,1013.26
2023-03-29T09:19:56.998Z,1013.34
2023-03-29T09:20:57.001Z,1013.34
2023-03-29T09:21:56.994Z,1013.36
2023-03-29T09:22:56.971Z,1013.39
2023-03-29T09:23:56.982Z,1013.38
2023-03-29T09:24:56.940Z,1013.43
2023-03-29T09:25:56.932Z,1013.41
2023-03-29T09:26:56.945Z,1013.41
2023-03-29T09:27:56.913Z,1013.41
2023-03-29T09:28:56.902Z,1013.38
2023-03-29T09:29:56.901Z,1013.35
2023-03-29T09:30:56.861Z,1013.31
2023-03-29T09:31:56.982Z,1013.28
2023-03-29T09:32:56.912Z,1013.21
2023-03-29T09:33:56.798Z,1013.31
2023-03-29T09:34:56.820Z,1013.22
2023-03-29T09:35:56.871Z,1013.26
2023-03-29T09:36:56.805Z,1013.21
2023-03-29T09:37:56.774Z,1013.26
2023-03-29T09:38:56.779Z,1013.24
2023-03-29T09:39:56.714Z,1013.30
2023-03-29T09:40:56.768Z,1013.25
2023-03-29T09:41:56.754Z,1013.33
2023-03-29T09:42:56.696Z,1013.30
2023-03-29T09:43:56.674Z,1013.24
2023-03-29T09:44:56.670Z,1013.23
2023-03-29T09:45:56.681Z,1013.20
2023-03-29T09:46:56.686Z,1013.25
2023-03-29T09:47:56.745Z,1013.27
2023-03-29T09:48:56.669Z,1013.27
2023-03-29T09:49:56.632Z,1013.25
2023-03-29T09:50:56.609Z,1013.24
2023-03-29T09:51:56.589Z,1013.19
2023-03-29T09:52:56.562Z,1013.17
2023-03-29T09:53:56.625Z,1013.18
2023-03-29T09:54:56.544Z,1013.24
2023-03-29T09:55:56.556Z,1013.25
2023-03-29T09:56:56.581Z,1013.27
2023-03-29T09:57:56.517Z,1013.20
2023-03-29T09:58:56.526Z,1013.13
2023-03-29T09:59:56.486Z,1013.20
2023-03-29T10:00:56.525Z,1013.17
2023-03-29T10:01:56.471Z,1013.13
2023-03-29T10:02:56.521Z,1013.11
2023-03-29T10:03:56.450Z,1013.19
2023-03-29T10:04:56.442Z,1013.17
2023-03-29T10:05:56.433Z,1013.16
2023-03-29T10:06:56.399Z,1013.16
2023-03-29T10:07:56.381Z,1013.17
2023-03-29T10:08:56.392Z,1013.19
2023-03-29T10:09:56.372Z,1013.11
2023-03-29T10:10:56.371Z,1013.06
2023-03-29T10:11:56.344Z,1013.00
2023-03-29T10:12:56.301Z,1013.03
2023-03-29T10:13:56.281Z,1013.01
2023-03-29T10:14:56.305Z,1013.03
2023-03-29T10:15:56.452Z,1013.03
2023-03-29T10:16:56.459Z,1013.05
2023-03-29T10:17:56.287Z,1013.04
2023-03-29T10:18:56.221Z,1013.05
2023-03-29T10:19:56.232Z,1013.04
2023-03-29T10:20:56.202Z,1013.11
2023-03-29T10:21:56.195Z,1013.09
2023-03-29T10:22:56.172Z,1013.12
2023-03-29T10:23:56.150Z,1013.16
2023-03-29T10:24:56.164Z,1013.09
2023-03-29T10:25:56.149Z,1013.09
2023-03-29T10:26:56.143Z,1013.05
2023-03-29T10:27:56.166Z,1013.06
2023-03-29T10:28:57.896Z,1013.01
2023-03-29T10:29:56.088Z,1013.04
2023-03-29T10:30:56.103Z,1013.10
2023-03-29T10:31:56.079Z,1013.03
2023-03-29T10:32:56.161Z,1013.06
2023-03-29T10:33:56.058Z,1013.02
2023-03-29T10:34:56.033Z,1013.01
2023-03-29T10:35:56.065Z,1013.05
2023-03-29T10:36:56.010Z,1013.00
2023-03-29T10:37:55.960Z,1012.96
2023-03-29T10:38:55.985Z,1013.02
2023-03-29T10:39:55.990Z,1013.05
2023-03-29T10:40:55.931Z,1013.02
2023-03-29T10:41:55.950Z,1013.02
2023-03-29T10:42:55.944Z,1012.97
2023-03-29T10:43:55.904Z,1012.93
2023-03-29T10:44:55.905Z,1012.95
2023-03-29T10:45:55.931Z,1012.96
2023-03-29T10:46:55.885Z,1012.97
2023-03-29T10:47:55.875Z,1012.99
2023-03-29T10:48:55.847Z,1012.92
2023-03-29T10:49:56.942Z,1012.87
2023-03-29T10:50:55.805Z,1012.90
2023-03-29T10:51:55.849Z,1012.86
2023-03-29T10:52:55.820Z,1012.88
2023-03-29T10:53:55.774Z,1012.87
2023-03-29T10:54:55.801Z,1012.82
2023-03-29T10:55:55.751Z,1012.85
2023-03-29T10:56:55.792Z,1012.78
2023-03-29T10:57:55.729Z,1012.82
2023-03-29T10:58:55.728Z,1012.77
2023-03-29T10:59:55.725Z,1012.72
2023-03-29T11:00:55.706Z,1012.69
2023-03-29T11:01:55.774Z,1012.73
2023-03-29T11:02:55.694Z,1012.66
2023-03-29T11:03:55.789Z,1012.72
2023-03-29T11:04:55.648Z,1012.69
2023-03-29T11:05:55.611Z,1012.67
2023-03-29T11:06:55.620Z,1012.64
2023-03-29T11:07:55.616Z,1012.68
2023-03-29T11:08:55.605Z,1012.62
2023-03-29T11:09:55.544Z,1012.62
2023-03-29T11:10:55.565Z,1012.62
2023-03-29T11:12:04.652Z,1012.60
2023-03-29T11:12:56.616Z,1012.62
2023-03-29T11:13:56.160Z,1012.64
2023-03-29T11:14:55.554Z,1012.64
2023-03-29T11:15:55.544Z,1012.62
2023-03-29T11:16:55.484Z,1012.63
2023-03-29T11:17:55.513Z,1012.64
2023-03-29T11:18:55.465Z,1012.65
2023-03-29T11:19:55.484Z,1012.70
2023-03-29T11:20:55.437Z,1012.67
2023-03-29T11:21:55.391Z,1012.69
2023-03-29T11:22:55.403Z,1012.66
2023-03-29T11:23:55.373Z,1012.68
2023-03-29T11:24:55.394Z,1012.62
2023-03-29T11:25:55.363Z,1012.62
2023-03-29T11:26:55.356Z,1012.64
2023-03-29T11:27:55.344Z,1012.58
2023-03-29T11:28:55.348Z,1012.59
2023-03-29T11:29:55.319Z,1012.62
2023-03-29T11:30:55.399Z,1012.55
2023-03-29T11:31:55.371Z,1012.54
2023-03-29T11:32:55.332Z,1012.48
2023-03-29T11:33:55.292Z,1012.42
2023-03-29T11:34:55.253Z,1012.40
2023-03-29T11:35:55.346Z,1012.41
2023-03-29T11:36:55.237Z,1012.40
2023-03-29T11:37:55.188Z,1012.41
2023-03-29T11:38:55.260Z,1012.43
2023-03-29T11:39:55.191Z,1012.44
2023-03-29T11:40:55.214Z,1012.49
2023-03-29T11:41:55.252Z,1012.35
2023-03-29T11:42:55.134Z,1012.39
2023-03-29T11:43:55.244Z,1012.38
2023-03-29T11:44:55.241Z,1012.38
2023-03-29T11:45:55.141Z,1012.38
2023-03-29T11:46:55.110Z,1012.39
2023-03-29T11:47:55.110Z,1012.41
2023-03-29T11:48:55.103Z,1012.34
2023-03-29T11:49:55.086Z,1012.33
2023-03-29T11:50:55.050Z,1012.35
2023-03-29T11:51:55.044Z,1012.31
2023-03-29T11:52:55.017Z,1012.39
2023-03-29T11:53:54.996Z,1012.30
2023-03-29T11:54:54.980Z,1012.32
2023-03-29T11:55:54.999Z,1012.25
2023-03-29T11:56:54.973Z,1012.24
2023-03-29T11:57:54.969Z,1012.21
2023-03-29T11:58:54.964Z,1012.21
2023-03-29T11:59:54.907Z,1012.25
2023-03-29T12:00:54.890Z,1012.29
2023-03-29T12:01:54.925Z,1012.29
2023-03-29T12:02:54.972Z,1012.20
2023-03-29T12:03:54.972Z,1012.26
2023-03-29T12:04:54.916Z,1012.20